createdAt,value
2022-08-19T00:01:10.353Z,22.80
2022-08-19T00:03:39.788Z,22.80
2022-08-19T00:06:11.441Z,22.70
2022-08-19T00:08:44.509Z,22.80
2022-08-19T00:11:25.252Z,22.80
2022-08-19T00:13:58.601Z,22.70
2022-08-19T00:16:29.472Z,22.70
2022-08-19T00:18:59.904Z,22.70
2022-08-19T00:21:29.440Z,22.60
2022-08-19T00:24:03.633Z,22.60
2022-08-19T00:26:36.233Z,22.40
2022-08-19T00:29:06.393Z,22.40
2022-08-19T00:31:39.064Z,22.20
2022-08-19T00:34:09.140Z,22.20
2022-08-19T00:36:39.243Z,22.00
2022-08-19T00:39:11.012Z,21.90
2022-08-19T00:41:43.463Z,21.90
2022-08-19T00:44:17.452Z,21.80
2022-08-19T00:46:55.302Z,21.70
2022-08-19T00:49:35.004Z,21.70
2022-08-19T00:52:10.312Z,21.60
2022-08-19T00:54:42.256Z,21.60
2022-08-19T00:57:18.519Z,21.60
2022-08-19T01:00:01.846Z,21.60
2022-08-19T01:02:36.073Z,21.60
2022-08-19T01:05:11.833Z,21.50
2022-08-19T01:07:45.652Z,21.50
2022-08-19T01:10:21.623Z,21.50
2022-08-19T01:12:52.718Z,21.60
2022-08-19T01:15:27.479Z,21.60
2022-08-19T01:17:58.011Z,21.50
2022-08-19T01:20:28.691Z,21.40
2022-08-19T01:23:02.676Z,21.30
2022-08-19T01:25:38.929Z,21.30
2022-08-19T01:28:10.590Z,21.30
2022-08-19T01:30:50.872Z,21.40
2022-08-19T01:33:22.190Z,21.40
2022-08-19T01:35:53.083Z,21.30
2022-08-19T01:38:28.023Z,21.20
2022-08-19T01:40:58.043Z,21.10
2022-08-19T01:43:28.235Z,21.10
2022-08-19T01:46:01.071Z,21.00
2022-08-19T01:48:35.830Z,21.00
2022-08-19T01:51:09.004Z,20.90
2022-08-19T01:53:41.227Z,20.80
2022-08-19T01:56:16.358Z,20.70
2022-08-19T01:58:54.960Z,20.70
2022-08-19T02:01:25.196Z,20.60
2022-08-19T02:04:02.346Z,20.50
2022-08-19T02:06:32.998Z,20.70
2022-08-19T02:09:04.613Z,20.40
2022-08-19T02:11:37.450Z,20.40
2022-08-19T02:14:11.162Z,20.30
2022-08-19T02:16:42.161Z,20.30
2022-08-19T02:19:13.770Z,20.30
2022-08-19T02:21:45.598Z,20.30
2022-08-19T02:24:23.518Z,20.20
2022-08-19T02:26:54.597Z,20.10
2022-08-19T02:29:25.137Z,20.10
2022-08-19T02:31:55.798Z,20.00
2022-08-19T02:34:27.533Z,19.90
2022-08-19T02:37:01.802Z,19.80
2022-08-19T02:39:36.241Z,19.70
2022-08-19T02:42:06.473Z,19.60
2022-08-19T02:44:35.885Z,19.50
2022-08-19T02:47:08.689Z,19.60
2022-08-19T02:49:40.553Z,19.50
2022-08-19T02:52:12.746Z,19.40
2022-08-19T02:54:48.301Z,19.40
2022-08-19T02:57:18.405Z,19.40
2022-08-19T02:59:51.413Z,19.30
2022-08-19T03:02:23.413Z,19.20
2022-08-19T03:04:53.104Z,19.20
2022-08-19T03:07:27.173Z,19.20
2022-08-19T03:10:00.574Z,19.10
2022-08-19T03:12:30.728Z,19.10
2022-08-19T03:15:01.120Z,19.10
2022-08-19T03:17:33.748Z,19.00
2022-08-19T03:20:06.532Z,19.00
2022-08-19T03:22:37.318Z,19.10
2022-08-19T03:25:09.590Z,19.10
2022-08-19T03:27:39.284Z,19.20
2022-08-19T03:30:11.596Z,19.20
2022-08-19T03:32:45.481Z,19.10
2022-08-19T03:35:15.224Z,19.10
2022-08-19T03:37:47.856Z,19.00
2022-08-19T03:40:20.324Z,18.90
2022-08-19T03:42:51.595Z,18.80
2022-08-19T03:45:21.495Z,18.80
2022-08-19T03:47:51.972Z,18.70
2022-08-19T03:50:22.980Z,18.70
2022-08-19T03:52:54.403Z,18.60
2022-08-19T03:55:28.027Z,18.60
2022-08-19T03:57:59.389Z,18.50
2022-08-19T04:00:29.527Z,18.40
2022-08-19T04:03:01.253Z,18.40
2022-08-19T04:05:31.971Z,18.40
2022-08-19T04:08:03.711Z,18.40
2022-08-19T04:10:39.925Z,18.40
2022-08-19T04:13:10.635Z,18.50
2022-08-19T04:15:43.178Z,18.60
2022-08-19T04:18:14.396Z,18.70
2022-08-19T04:20:45.379Z,18.80
2022-08-19T04:23:16.320Z,18.80
2022-08-19T04:25:48.996Z,18.80
2022-08-19T04:28:18.888Z,18.90
2022-08-19T04:30:53.267Z,18.90
2022-08-19T04:33:26.815Z,19.10
2022-08-19T04:35:59.566Z,19.20
2022-08-19T04:38:30.565Z,19.30
2022-08-19T04:41:19.600Z,19.50
2022-08-19T04:43:50.219Z,19.60
2022-08-19T04:46:40.337Z,19.80
2022-08-19T04:49:13.148Z,19.90
2022-08-19T04:51:45.370Z,20.00
2022-08-19T04:54:23.925Z,20.20
2022-08-19T04:57:08.687Z,20.20
2022-08-19T04:59:39.526Z,20.50
2022-08-19T05:02:11.584Z,20.60
2022-08-19T05:04:41.422Z,20.70
2022-08-19T05:07:11.491Z,20.80
2022-08-19T05:09:58.491Z,20.90
2022-08-19T05:12:36.105Z,21.00
2022-08-19T05:15:10.694Z,21.10
2022-08-19T05:18:00.610Z,21.20
2022-08-19T05:20:48.681Z,21.30
2022-08-19T05:23:22.569Z,21.40
2022-08-19T05:25:53.281Z,21.50
2022-08-19T05:28:24.629Z,21.70
2022-08-19T05:30:56.689Z,21.80
2022-08-19T05:33:30.661Z,21.90
2022-08-19T05:36:00.249Z,21.90
2022-08-19T05:38:30.185Z,22.00
2022-08-19T05:41:00.270Z,22.10
2022-08-19T05:43:31.817Z,22.10
2022-08-19T05:46:01.616Z,22.10
2022-08-19T05:48:31.508Z,22.10
2022-08-19T05:51:10.994Z,22.10
2022-08-19T05:53:41.269Z,22.20
2022-08-19T05:56:14.352Z,22.20
2022-08-19T05:58:48.960Z,22.30
2022-08-19T06:01:22.272Z,22.40
2022-08-19T06:03:52.444Z,22.50
2022-08-19T06:06:26.073Z,22.50
2022-08-19T06:08:57.641Z,22.60
2022-08-19T06:11:39.629Z,22.70
2022-08-19T06:14:16.787Z,22.80
2022-08-19T06:16:47.108Z,22.80
2022-08-19T06:19:19.451Z,22.90
2022-08-19T06:21:51.502Z,22.90
2022-08-19T06:24:25.399Z,23.00
2022-08-19T06:27:00.833Z,23.10
2022-08-19T06:29:34.103Z,23.20
2022-08-19T06:32:09.780Z,23.50
2022-08-19T06:34:39.380Z,23.60
2022-08-19T06:37:08.680Z,23.50
2022-08-19T06:39:41.944Z,23.60
2022-08-19T06:42:14.955Z,23.60
2022-08-19T06:44:53.101Z,23.60
2022-08-19T06:47:28.866Z,23.90
2022-08-19T06:50:03.608Z,24.20
2022-08-19T06:52:33.967Z,24.50
2022-08-19T06:55:06.946Z,24.60
2022-08-19T06:57:37.678Z,24.60
2022-08-19T07:00:13.481Z,24.70
2022-08-19T07:02:49.578Z,24.90
2022-08-19T07:05:26.351Z,25.10
2022-08-19T07:07:58.179Z,25.40
2022-08-19T07:10:33.606Z,25.60
2022-08-19T07:13:03.427Z,25.40
2022-08-19T07:15:34.598Z,25.40
2022-08-19T07:18:05.403Z,25.60
2022-08-19T07:20:34.438Z,25.80
2022-08-19T07:23:08.366Z,25.70
2022-08-19T07:25:40.007Z,25.80
2022-08-19T07:28:22.430Z,25.90
2022-08-19T07:30:55.666Z,26.10
2022-08-19T07:33:24.844Z,26.20
2022-08-19T07:35:58.345Z,26.30
2022-08-19T07:38:28.099Z,26.40
2022-08-19T07:40:58.882Z,26.40
2022-08-19T07:43:34.721Z,26.60
2022-08-19T07:48:48.190Z,26.80
2022-08-19T07:51:36.016Z,26.90
2022-08-19T07:54:10.109Z,27.00
2022-08-19T07:56:44.233Z,27.10
2022-08-19T07:59:14.693Z,27.40
2022-08-19T08:01:49.312Z,27.40
2022-08-19T08:04:36.625Z,27.60
2022-08-19T08:07:24.272Z,27.90
2022-08-19T08:10:02.831Z,28.10
2022-08-19T08:12:37.445Z,28.60
2022-08-19T08:15:19.517Z,28.80
2022-08-19T08:17:56.697Z,28.50
2022-08-19T08:20:34.333Z,28.40
2022-08-19T08:23:22.817Z,28.40
2022-08-19T08:25:54.051Z,28.50
2022-08-19T08:28:24.817Z,28.70
2022-08-19T08:30:56.213Z,28.50
2022-08-19T08:33:33.866Z,28.90
2022-08-19T08:36:06.154Z,29.00
2022-08-19T08:38:41.698Z,29.00
2022-08-19T08:41:20.469Z,29.10
2022-08-19T08:43:54.589Z,29.80
2022-08-19T08:46:30.523Z,30.30
2022-08-19T08:49:10.535Z,30.80
2022-08-19T08:51:44.194Z,31.10
2022-08-19T08:54:24.568Z,31.30
2022-08-19T08:56:56.863Z,31.20
2022-08-19T08:59:34.035Z,31.80
2022-08-19T09:02:04.100Z,32.20
2022-08-19T09:04:37.415Z,32.70
2022-08-19T09:07:38.034Z,33.10
2022-08-19T09:10:20.024Z,33.40
2022-08-19T09:13:01.227Z,33.40
2022-08-19T09:15:36.742Z,34.30
2022-08-19T09:18:19.200Z,34.90
2022-08-19T09:20:50.833Z,34.70
2022-08-19T09:23:26.701Z,35.20
2022-08-19T09:25:56.826Z,35.30
2022-08-19T09:28:31.058Z,35.40
2022-08-19T09:31:02.846Z,36.90
2022-08-19T09:33:33.254Z,36.30
2022-08-19T09:36:11.233Z,36.80
2022-08-19T09:38:43.560Z,37.20
2022-08-19T09:41:16.778Z,38.20
2022-08-19T09:43:53.589Z,39.60
2022-08-19T09:46:24.862Z,39.00
2022-08-19T09:48:56.078Z,40.70
2022-08-19T09:51:30.001Z,41.40
2022-08-19T09:54:07.954Z,40.80
2022-08-19T09:56:42.395Z,41.50
2022-08-19T09:59:13.572Z,41.10
2022-08-19T10:01:43.118Z,42.60
2022-08-19T10:04:20.118Z,42.40
2022-08-19T10:07:13.956Z,42.00
2022-08-19T10:09:45.448Z,40.80
2022-08-19T10:12:17.840Z,41.80
2022-08-19T10:14:49.457Z,42.40
2022-08-19T10:17:22.212Z,42.40
2022-08-19T10:19:57.228Z,42.90
2022-08-19T10:22:28.284Z,41.80
2022-08-19T10:24:58.953Z,41.60
2022-08-19T10:27:28.282Z,41.70
2022-08-19T10:30:02.480Z,42.20
2022-08-19T10:32:34.072Z,43.90
2022-08-19T10:35:06.062Z,42.80
2022-08-19T10:37:56.680Z,42.50
2022-08-19T10:40:27.444Z,42.30
2022-08-19T10:42:57.579Z,41.30
2022-08-19T10:45:28.176Z,40.00
2022-08-19T10:47:57.607Z,41.40
2022-08-19T10:50:45.429Z,43.00
2022-08-19T10:53:19.824Z,41.10
2022-08-19T10:56:07.378Z,42.20
2022-08-19T10:58:36.863Z,41.90
2022-08-19T11:01:08.023Z,42.80
2022-08-19T11:03:37.911Z,42.20
2022-08-19T11:06:10.666Z,41.60
2022-08-19T11:08:49.220Z,43.00
2022-08-19T11:11:23.310Z,42.50
2022-08-19T11:13:53.391Z,42.00
2022-08-19T11:16:25.346Z,42.10
2022-08-19T11:19:00.934Z,41.60
2022-08-19T11:21:33.783Z,41.00
2022-08-19T11:24:09.667Z,41.10
2022-08-19T11:26:40.794Z,39.90
2022-08-19T11:29:14.556Z,40.00
2022-08-19T11:31:48.559Z,42.50
2022-08-19T11:34:21.078Z,42.40
2022-08-19T11:36:54.305Z,43.20
2022-08-19T11:39:25.526Z,42.80
2022-08-19T11:41:55.389Z,43.30
2022-08-19T11:44:24.905Z,42.60
2022-08-19T11:46:54.597Z,41.70
2022-08-19T11:49:25.923Z,41.40
2022-08-19T11:51:55.724Z,40.40
2022-08-19T11:54:28.858Z,39.00
2022-08-19T11:56:58.514Z,38.40
2022-08-19T11:59:29.049Z,38.80
2022-08-19T12:02:00.729Z,38.90
2022-08-19T12:04:30.355Z,40.10
2022-08-19T12:07:04.750Z,41.10
2022-08-19T12:09:36.885Z,41.80
2022-08-19T12:12:11.825Z,40.20
2022-08-19T12:14:41.636Z,41.10
2022-08-19T12:17:14.878Z,42.00
2022-08-19T12:19:43.986Z,41.50
2022-08-19T12:22:13.729Z,42.20
2022-08-19T12:24:46.064Z,43.30
2022-08-19T12:27:15.468Z,42.70
2022-08-19T12:30:03.353Z,41.90
2022-08-19T12:32:33.142Z,41.80
2022-08-19T12:35:02.405Z,42.30
2022-08-19T12:37:33.632Z,42.10
2022-08-19T12:40:05.753Z,42.40
2022-08-19T12:42:36.213Z,42.10
2022-08-19T12:45:06.505Z,43.40
2022-08-19T12:47:40.838Z,43.50
2022-08-19T12:50:13.726Z,44.30
2022-08-19T12:52:43.891Z,43.10
2022-08-19T12:55:19.747Z,42.50
2022-08-19T12:57:52.379Z,42.50
2022-08-19T13:00:24.751Z,42.80
2022-08-19T13:02:55.911Z,43.30
2022-08-19T13:05:28.272Z,42.90
2022-08-19T13:08:01.242Z,43.00
2022-08-19T13:10:36.783Z,42.60
2022-08-19T13:13:08.403Z,42.70
2022-08-19T13:15:41.460Z,41.80
2022-08-19T13:18:13.266Z,41.50
2022-08-19T13:20:52.702Z,41.90
2022-08-19T13:23:24.209Z,42.30
2022-08-19T13:26:06.246Z,42.70
2022-08-19T13:28:51.785Z,43.50
2022-08-19T13:31:40.291Z,42.00
2022-08-19T13:34:10.614Z,41.80
2022-08-19T13:36:41.642Z,42.30
2022-08-19T13:39:14.446Z,42.90
2022-08-19T13:41:51.228Z,40.60
2022-08-19T13:44:21.529Z,41.60
2022-08-19T13:46:54.437Z,41.60
2022-08-19T13:49:26.403Z,39.60
2022-08-19T13:51:55.858Z,38.00
2022-08-19T13:54:25.963Z,37.60
2022-08-19T13:56:57.346Z,38.40
2022-08-19T13:59:27.272Z,38.60
2022-08-19T14:02:02.406Z,37.80
2022-08-19T14:04:31.981Z,38.40
2022-08-19T14:07:02.852Z,37.90
2022-08-19T14:09:32.970Z,36.90
2022-08-19T14:12:04.090Z,36.80
2022-08-19T14:14:35.446Z,36.60
2022-08-19T14:17:04.742Z,36.60
2022-08-19T14:19:34.541Z,36.10
2022-08-19T14:22:03.914Z,36.10
2022-08-19T14:24:33.791Z,36.00
2022-08-19T14:27:05.645Z,35.70
2022-08-19T14:29:38.377Z,35.20
2022-08-19T14:32:11.562Z,34.90
2022-08-19T14:34:47.133Z,34.90
2022-08-19T14:37:16.838Z,34.90
2022-08-19T14:39:46.369Z,34.90
2022-08-19T14:42:18.201Z,34.80
2022-08-19T14:44:47.705Z,34.50
2022-08-19T14:47:16.901Z,34.50
2022-08-19T14:49:52.073Z,34.30
2022-08-19T14:52:22.693Z,34.00
2022-08-19T14:54:51.869Z,34.30
2022-08-19T14:57:23.696Z,34.40
2022-08-19T14:59:53.169Z,34.30
2022-08-19T15:02:34.979Z,34.30
2022-08-19T15:05:05.244Z,34.20
2022-08-19T15:07:35.748Z,34.10
2022-08-19T15:10:08.464Z,34.00
2022-08-19T15:12:41.736Z,33.90
2022-08-19T15:15:17.808Z,33.80
2022-08-19T15:17:49.756Z,33.80
2022-08-19T15:20:23.361Z,33.80
2022-08-19T15:22:53.473Z,33.70
2022-08-19T15:25:24.425Z,33.50
2022-08-19T15:27:56.283Z,33.50
2022-08-19T15:30:29.784Z,33.00
2022-08-19T15:33:00.272Z,33.00
2022-08-19T15:35:30.570Z,32.70
2022-08-19T15:38:01.198Z,32.40
2022-08-19T15:40:33.696Z,32.00
2022-08-19T15:43:04.533Z,31.90
2022-08-19T15:45:37.429Z,31.60
2022-08-19T15:48:08.816Z,31.30
2022-08-19T15:50:40.323Z,31.00
2022-08-19T15:53:13.385Z,30.80
2022-08-19T15:55:48.915Z,30.80
2022-08-19T15:58:37.332Z,30.50
2022-08-19T16:01:27.389Z,30.30
2022-08-19T16:04:17.079Z,30.20
2022-08-19T16:06:50.830Z,30.10
2022-08-19T16:09:26.646Z,29.90
2022-08-19T16:12:01.879Z,29.80
2022-08-19T16:14:34.670Z,29.80
2022-08-19T16:17:06.239Z,29.60
2022-08-19T16:19:35.852Z,29.60
2022-08-19T16:22:06.380Z,29.40
2022-08-19T16:24:35.726Z,29.50
2022-08-19T16:27:07.960Z,29.50
2022-08-19T16:29:39.682Z,29.40
2022-08-19T16:32:14.897Z,29.30
2022-08-19T16:34:45.201Z,29.20
2022-08-19T16:37:18.483Z,29.30
2022-08-19T16:39:54.394Z,29.10
2022-08-19T16:42:24.227Z,29.10
2022-08-19T16:44:55.250Z,29.10
2022-08-19T16:47:24.459Z,29.10
2022-08-19T16:49:55.470Z,28.90
2022-08-19T16:52:27.219Z,28.40
2022-08-19T16:54:58.862Z,28.20
2022-08-19T16:57:28.328Z,28.10
2022-08-19T16:59:59.902Z,28.00
2022-08-19T17:02:31.735Z,28.10
2022-08-19T17:05:04.778Z,28.20
2022-08-19T17:07:34.946Z,28.30
2022-08-19T17:10:08.695Z,28.40
2022-08-19T17:12:38.661Z,28.20
2022-08-19T17:15:11.491Z,28.10
2022-08-19T17:17:40.738Z,28.10
2022-08-19T17:20:14.101Z,27.90
2022-08-19T17:22:43.329Z,27.50
2022-08-19T17:25:12.545Z,27.50
2022-08-19T17:27:42.922Z,27.50
2022-08-19T17:30:15.872Z,27.50
2022-08-19T17:32:47.666Z,27.50
2022-08-19T17:35:23.929Z,27.40
2022-08-19T17:37:56.666Z,27.30
2022-08-19T17:40:26.817Z,27.20
2022-08-19T17:43:01.949Z,27.00
2022-08-19T17:45:36.493Z,27.00
2022-08-19T17:48:08.741Z,26.90
2022-08-19T17:50:38.980Z,26.90
2022-08-19T17:53:09.180Z,26.90
2022-08-19T17:55:48.099Z,26.70
2022-08-19T17:58:17.745Z,26.60
2022-08-19T18:00:56.412Z,26.30
2022-08-19T18:03:26.876Z,26.20
2022-08-19T18:05:56.811Z,26.10
2022-08-19T18:08:26.452Z,26.10
2022-08-19T18:10:56.588Z,26.10
2022-08-19T18:13:26.796Z,26.00
2022-08-19T18:15:58.644Z,26.00
2022-08-19T18:18:32.778Z,26.30
2022-08-19T18:21:04.324Z,26.40
2022-08-19T18:23:44.598Z,26.40
2022-08-19T18:26:17.099Z,26.30
2022-08-19T18:28:49.855Z,26.00
2022-08-19T18:31:26.384Z,25.90
2022-08-19T18:33:58.763Z,25.60
2022-08-19T18:36:52.531Z,25.50
2022-08-19T18:39:44.332Z,25.40
2022-08-19T18:42:35.802Z,25.20
2022-08-19T18:45:23.542Z,25.20
2022-08-19T18:48:26.666Z,25.10
2022-08-19T18:51:04.463Z,25.10
2022-08-19T18:53:39.704Z,25.30
2022-08-19T18:56:11.510Z,25.40
2022-08-19T18:58:46.036Z,25.60
2022-08-19T19:01:24.468Z,25.70
2022-08-19T19:03:57.940Z,25.70
2022-08-19T19:06:31.332Z,25.60
2022-08-19T19:09:01.297Z,25.40
2022-08-19T19:11:36.079Z,25.30
2022-08-19T19:14:19.259Z,25.20
2022-08-19T19:17:03.817Z,25.30
2022-08-19T19:19:37.180Z,25.40
2022-08-19T19:22:08.016Z,25.50
2022-08-19T19:24:41.502Z,25.50
2022-08-19T19:27:13.415Z,25.50
2022-08-19T19:29:51.747Z,25.40
2022-08-19T19:32:25.810Z,25.50
2022-08-19T19:34:58.631Z,25.40
2022-08-19T19:37:30.674Z,24.70
2022-08-19T19:40:01.970Z,24.00
2022-08-19T19:42:34.479Z,23.50
2022-08-19T19:45:04.902Z,23.00
2022-08-19T19:47:35.009Z,22.70
2022-08-19T19:50:14.922Z,22.50
2022-08-19T19:52:47.677Z,22.30
2022-08-19T19:55:20.002Z,22.20
2022-08-19T19:57:52.066Z,22.10
2022-08-19T20:00:24.815Z,22.00
2022-08-19T20:02:56.837Z,21.80
2022-08-19T20:05:30.445Z,21.70
2022-08-19T20:08:17.545Z,21.80
2022-08-19T20:10:48.677Z,21.80
2022-08-19T20:13:18.285Z,21.70
2022-08-19T20:15:49.937Z,21.60
2022-08-19T20:18:20.717Z,21.60
2022-08-19T20:20:54.001Z,21.70
2022-08-19T20:23:25.186Z,21.60
2022-08-19T20:25:56.678Z,21.50
2022-08-19T20:28:27.048Z,21.40
2022-08-19T20:30:57.078Z,21.30
2022-08-19T20:33:28.992Z,21.40
2022-08-19T20:36:00.256Z,21.40
2022-08-19T20:38:30.705Z,21.40
2022-08-19T20:41:01.052Z,21.40
2022-08-19T20:43:31.037Z,21.30
2022-08-19T20:46:05.584Z,21.30
2022-08-19T20:48:39.748Z,21.20
2022-08-19T20:51:12.920Z,21.30
2022-08-19T20:53:43.854Z,21.30
2022-08-19T20:56:14.229Z,21.20
2022-08-19T20:58:43.881Z,21.20
2022-08-19T21:01:13.680Z,21.20
2022-08-19T21:03:48.847Z,21.10
2022-08-19T21:06:23.154Z,21.10
2022-08-19T21:08:55.307Z,21.00
2022-08-19T21:11:26.495Z,21.00
2022-08-19T21:14:01.591Z,20.90
2022-08-19T21:16:37.380Z,20.90
2022-08-19T21:19:11.396Z,20.70
2022-08-19T21:21:43.323Z,20.90
2022-08-19T21:24:13.059Z,20.80
2022-08-19T21:26:49.435Z,20.80
2022-08-19T21:29:24.100Z,20.80
2022-08-19T21:31:54.175Z,20.90
2022-08-19T21:34:25.267Z,20.90
2022-08-19T21:36:59.970Z,20.90
2022-08-19T21:39:31.399Z,20.80
2022-08-19T21:42:03.140Z,20.80
2022-08-19T21:44:33.807Z,20.80
2022-08-19T21:47:07.514Z,20.70
2022-08-19T21:49:40.650Z,20.70
2022-08-19T21:52:13.802Z,20.60
2022-08-19T21:54:43.718Z,20.60
2022-08-19T21:57:12.692Z,20.60
2022-08-19T21:59:43.537Z,20.60
2022-08-19T22:02:21.550Z,20.60
2022-08-19T22:04:51.708Z,20.60
2022-08-19T22:07:25.850Z,20.80
2022-08-19T22:09:58.789Z,20.70
2022-08-19T22:12:31.246Z,20.80
2022-08-19T22:15:02.844Z,20.80
2022-08-19T22:17:33.902Z,20.70
2022-08-19T22:20:06.559Z,20.70
2022-08-19T22:22:39.226Z,20.60
2022-08-19T22:25:14.362Z,20.50
2022-08-19T22:28:03.862Z,20.50
2022-08-19T22:30:35.835Z,20.40
2022-08-19T22:33:08.319Z,20.30
2022-08-19T22:35:39.518Z,20.30
2022-08-19T22:38:13.561Z,20.40
2022-08-19T22:40:48.541Z,20.30
2022-08-19T22:43:22.321Z,20.30
2022-08-19T22:45:53.678Z,20.20
2022-08-19T22:48:25.677Z,20.20
2022-08-19T22:51:12.577Z,20.10
2022-08-19T22:53:56.401Z,20.10
2022-08-19T22:56:27.240Z,20.00
2022-08-19T22:58:56.351Z,19.90
2022-08-19T23:01:30.359Z,19.90
2022-08-19T23:04:03.916Z,20.00
2022-08-19T23:06:40.279Z,20.10
2022-08-19T23:09:17.183Z,20.10
2022-08-19T23:11:48.526Z,19.90
2022-08-19T23:14:19.640Z,19.90
2022-08-19T23:16:51.350Z,19.80
2022-08-19T23:19:24.648Z,19.80
2022-08-19T23:21:55.089Z,19.80
2022-08-19T23:24:29.043Z,19.70
2022-08-19T23:27:15.883Z,19.70
2022-08-19T23:30:03.051Z,19.70
2022-08-19T23:32:36.951Z,19.60
2022-08-19T23:35:09.639Z,19.60
2022-08-19T23:37:39.283Z,19.70
2022-08-19T23:40:13.088Z,19.80
2022-08-19T23:42:43.607Z,19.70
2022-08-19T23:45:13.935Z,19.60
2022-08-19T23:47:43.519Z,19.60
2022-08-19T23:50:16.783Z,19.60
2022-08-19T23:52:52.090Z,19.60
2022-08-19T23:55:27.654Z,19.60
2022-08-19T23:57:59.926Z,19.60
